Time;durP1;ratioP1;P1;durP2;ratioP2;P2;SDS_P1;SDS_P2;PMS_P1;PMS_P2;Temp;Humidity;BMP_temperature;BMP_pressure;BME280_temperature;BME280_humidity;BME280_pressure;Samples;Min_cycle;Max_cycle;Signal;HPM_P1;HPM_P2
2022/10/07 00:00:39;;;;;;;;;;;;;;;9.16;100.00;101869.41;5026819;28;19909;-72
2022/10/07 00:03:04;;;;;;;;;;;;;;;9.12;100.00;101844.81;5016509;28;20281;-72
2022/10/07 00:05:29;;;;;;;;;;;;;;;9.10;100.00;101846.75;5032032;28;19919;-72
2022/10/07 00:07:55;;;;;;;;;;;;;;;9.06;100.00;101839.97;5032804;28;20281;-72
2022/10/07 00:10:20;;;;;;;;;;;;;;;9.04;100.00;101836.63;5015688;28;19960;-71
2022/10/07 00:12:45;;;;;;;;;;;;;;;9.03;100.00;101837.56;5019201;28;20328;-72
2022/10/07 00:15:10;;;;;;;;;;;;;;;9.07;100.00;101837.19;5015659;28;20158;-72
2022/10/07 00:17:36;;;;;;;;;;;;;;;9.10;100.00;101833.44;5018155;28;20710;-72
2022/10/07 00:20:01;;;;;;;;;;;;;;;9.04;100.00;101815.31;4991888;28;20822;-72
2022/10/07 00:22:26;;;;;;;;;;;;;;;9.02;100.00;101817.25;5020986;28;20321;-72
2022/10/07 00:24:52;;;;;;;;;;;;;;;9.05;100.00;101824.97;5024706;28;19924;-73
2022/10/07 00:27:17;;;;;;;;;;;;;;;9.05;100.00;101811.66;5016822;28;20581;-72
2022/10/07 00:29:44;;;;;;;;;;;;;;;8.99;100.00;101817.47;5012439;28;19938;-72
2022/10/07 00:32:09;;;;;;;;;;;;;;;9.00;100.00;101829.84;5011954;28;19914;-72
2022/10/07 00:34:34;;;;;;;;;;;;;;;8.95;100.00;101837.38;5024722;28;20405;-72
2022/10/07 00:36:59;;;;;;;;;;;;;;;8.91;100.00;101836.75;5007568;28;19913;-73
2022/10/07 00:39:25;;;;;;;;;;;;;;;8.85;100.00;101848.78;5009404;28;20297;-72
2022/10/07 00:41:50;;;;;;;;;;;;;;;8.90;100.00;101850.19;5018931;28;19917;-72
2022/10/07 00:44:42;;;;;;;;;;;;;;;8.83;100.00;101849.88;5024433;28;19909;-72
2022/10/07 00:47:20;;;;;;;;;;;;;;;8.81;100.00;101852.66;4989267;28;19917;-72
2022/10/07 00:49:53;;;;;;;;;;;;;;;8.82;100.00;101850.81;5003225;28;19913;-72
2022/10/07 00:52:20;;;;;;;;;;;;;;;8.86;100.00;101855.78;5024345;28;20004;-72
2022/10/07 00:54:51;;;;;;;;;;;;;;;8.71;100.00;101833.06;5024275;28;20000;-72
2022/10/07 00:57:17;;;;;;;;;;;;;;;8.71;100.00;101849.03;5023732;28;19921;-72
2022/10/07 00:59:42;;;;;;;;;;;;;;;8.66;100.00;101851.22;5026122;28;19920;-72
2022/10/07 01:02:07;;;;;;;;;;;;;;;8.73;100.00;101851.56;5030353;28;19913;-72
2022/10/07 01:04:33;;;;;;;;;;;;;;;8.67;100.00;101850.25;5016469;28;19914;-73
2022/10/07 01:06:58;;;;;;;;;;;;;;;8.66;100.00;101852.06;5031346;28;19913;-72
2022/10/07 01:09:23;;;;;;;;;;;;;;;8.68;100.00;101851.09;5013679;28;20487;-72
2022/10/07 01:12:07;;;;;;;;;;;;;;;8.69;100.00;101847.47;5032624;28;20366;-72
2022/10/07 01:14:42;;;;;;;;;;;;;;;8.70;100.00;101841.16;5024420;28;19928;-72
2022/10/07 01:17:29;;;;;;;;;;;;;;;8.64;100.00;101830.06;5014130;28;19968;-72
2022/10/07 01:20:02;;;;;;;;;;;;;;;8.63;100.00;101832.81;5014644;28;19913;-73
2022/10/07 01:22:37;;;;;;;;;;;;;;;8.65;100.00;101831.72;5018681;28;20294;-73
2022/10/07 01:25:17;;;;;;;;;;;;;;;8.61;100.00;101824.09;5016000;28;19959;-72
2022/10/07 01:27:46;;;;;;;;;;;;;;;8.60;100.00;101817.94;5016203;28;20014;-73
2022/10/07 01:30:13;;;;;;;;;;;;;;;8.56;100.00;101810.34;4990141;28;19913;-73
2022/10/07 01:32:46;;;;;;;;;;;;;;;8.59;100.00;101810.06;5015760;28;19921;-73
2022/10/07 01:35:17;;;;;;;;;;;;;;;8.62;100.00;101812.50;5009642;28;19917;-73
2022/10/07 01:37:48;;;;;;;;;;;;;;;8.61;100.00;101798.34;5025610;28;19917;-73
2022/10/07 01:40:20;;;;;;;;;;;;;;;8.59;100.00;101788.78;5011618;28;19953;-73
2022/10/07 01:42:46;;;;;;;;;;;;;;;8.56;100.00;101783.72;5019397;28;19913;-73
2022/10/07 01:45:13;;;;;;;;;;;;;;;8.52;100.00;101775.16;5000557;28;19920;-73
2022/10/07 01:47:38;;;;;;;;;;;;;;;8.50;100.00;101779.75;5024741;28;20397;-72
2022/10/07 01:50:11;;;;;;;;;;;;;;;8.53;100.00;101779.50;5012978;28;19913;-73
2022/10/07 01:52:42;;;;;;;;;;;;;;;8.49;100.00;101767.38;4992155;28;20366;-73
2022/10/07 01:55:14;;;;;;;;;;;;;;;8.59;100.00;101778.13;5014887;28;19956;-73
2022/10/07 01:57:46;;;;;;;;;;;;;;;8.56;100.00;101765.09;5024590;28;20321;-73
2022/10/07 02:00:11;;;;;;;;;;;;;;;8.55;100.00;101758.09;5026052;28;19920;-73
2022/10/07 02:02:44;;;;;;;;;;;;;;;8.55;100.00;101750.94;5016444;28;19963;-73
2022/10/07 02:05:18;;;;;;;;;;;;;;;8.54;100.00;101740.41;5017065;28;19955;-73
2022/10/07 02:07:44;;;;;;;;;;;;;;;8.52;100.00;101740.53;5007509;28;19960;-72
2022/10/07 02:10:10;;;;;;;;;;;;;;;8.50;100.00;101736.28;5018991;28;19963;-73
2022/10/07 02:12:36;;;;;;;;;;;;;;;8.50;100.00;101722.97;5014353;28;19909;-72
2022/10/07 02:15:12;;;;;;;;;;;;;;;8.47;100.00;101723.25;4999011;28;19917;-72
2022/10/07 02:17:41;;;;;;;;;;;;;;;8.47;100.00;101724.09;4991137;28;19921;-72
2022/10/07 02:20:09;;;;;;;;;;;;;;;8.44;100.00;101725.19;4998005;28;19921;-72
2022/10/07 02:22:35;;;;;;;;;;;;;;;8.45;100.00;101713.59;4991667;28;19917;-72
2022/10/07 02:25:00;;;;;;;;;;;;;;;8.38;100.00;101722.13;5029517;28;20282;-72
2022/10/07 02:27:30;;;;;;;;;;;;;;;8.41;100.00;101717.44;5012651;28;19917;-73
2022/10/07 02:29:58;;;;;;;;;;;;;;;8.40;100.00;101709.59;5013431;28;19966;-73
2022/10/07 02:32:25;;;;;;;;;;;;;;;8.37;100.00;101701.84;5013366;28;19925;-73
2022/10/07 02:34:53;;;;;;;;;;;;;;;8.40;100.00;101712.25;5014079;28;20306;-73
2022/10/07 02:37:23;;;;;;;;;;;;;;;8.36;100.00;101703.66;5012788;28;19914;-73
2022/10/07 02:39:48;;;;;;;;;;;;;;;8.36;100.00;101706.31;5004513;28;20000;-73
2022/10/07 02:42:15;;;;;;;;;;;;;;;8.30;100.00;101704.13;5014456;28;20000;-73
2022/10/07 02:44:45;;;;;;;;;;;;;;;8.29;100.00;101701.59;5015320;28;20043;-72
2022/10/07 02:47:18;;;;;;;;;;;;;;;8.29;100.00;101707.78;5025661;28;20354;-72
2022/10/07 02:49:46;;;;;;;;;;;;;;;8.34;100.00;101700.25;5015891;28;19917;-72
2022/10/07 02:52:16;;;;;;;;;;;;;;;8.36;100.00;101693.00;5006847;28;19964;-72
2022/10/07 02:54:46;;;;;;;;;;;;;;;8.31;100.00;101673.91;5024257;28;20284;-72
2022/10/07 02:57:14;;;;;;;;;;;;;;;8.35;100.00;101674.50;5006716;28;19945;-72
2022/10/07 02:59:40;;;;;;;;;;;;;;;8.36;100.00;101670.88;5023557;28;19964;-72
2022/10/07 03:02:11;;;;;;;;;;;;;;;8.35;100.00;101664.69;5016364;28;19964;-72
2022/10/07 03:04:36;;;;;;;;;;;;;;;8.35;100.00;101659.38;5023274;28;19924;-72
2022/10/07 03:07:01;;;;;;;;;;;;;;;8.32;100.00;101645.50;5013538;28;19913;-72
2022/10/07 03:09:29;;;;;;;;;;;;;;;8.31;100.00;101630.47;5011293;28;19913;-72
2022/10/07 03:11:55;;;;;;;;;;;;;;;8.32;100.00;101637.50;5017663;28;19913;-72
2022/10/07 03:14:23;;;;;;;;;;;;;;;8.32;100.00;101637.50;5012618;28;19935;-72
2022/10/07 03:16:48;;;;;;;;;;;;;;;8.31;100.00;101622.50;5030454;28;19917;-72
2022/10/07 03:19:13;;;;;;;;;;;;;;;8.32;100.00;101616.22;5010934;28;20517;-72
2022/10/07 03:21:49;;;;;;;;;;;;;;;8.34;100.00;101615.13;5030162;28;19913;-72
2022/10/07 03:24:17;;;;;;;;;;;;;;;8.32;100.00;101606.41;5012176;28;19925;-72
2022/10/07 03:26:44;;;;;;;;;;;;;;;8.37;100.00;101595.41;4995730;28;19916;-72
2022/10/07 03:29:12;;;;;;;;;;;;;;;8.28;100.00;101586.34;5025140;28;20323;-72
2022/10/07 03:31:39;;;;;;;;;;;;;;;8.29;100.00;101589.84;4991661;28;19968;-72
2022/10/07 03:34:05;;;;;;;;;;;;;;;8.27;100.00;101592.66;5012923;28;19909;-72
2022/10/07 03:36:30;;;;;;;;;;;;;;;8.32;100.00;101590.44;5006318;28;19922;-72
2022/10/07 03:38:55;;;;;;;;;;;;;;;8.31;100.00;101572.81;5021947;28;20378;-72
2022/10/07 03:41:21;;;;;;;;;;;;;;;8.32;100.00;101566.50;5016149;28;20483;-72
2022/10/07 03:43:50;;;;;;;;;;;;;;;8.29;100.00;101561.44;5014981;28;19917;-72
2022/10/07 03:46:19;;;;;;;;;;;;;;;8.33;100.00;101552.22;5011811;28;20007;-72
2022/10/07 03:48:45;;;;;;;;;;;;;;;8.31;100.00;101545.34;5003871;28;20000;-72
2022/10/07 03:51:10;;;;;;;;;;;;;;;8.32;100.00;101547.88;5017572;28;20037;-72
2022/10/07 03:53:39;;;;;;;;;;;;;;;8.34;100.00;101543.28;5015496;28;19956;-72
2022/10/07 03:56:04;;;;;;;;;;;;;;;8.35;100.00;101531.66;5026782;28;20345;-72
2022/10/07 03:58:31;;;;;;;;;;;;;;;8.32;100.00;101523.94;5028765;28;19913;-72
2022/10/07 04:01:04;;;;;;;;;;;;;;;8.33;100.00;101527.44;5019506;28;20365;-72
2022/10/07 04:03:29;;;;;;;;;;;;;;;8.29;100.00;101539.28;5011283;28;19917;-73
2022/10/07 04:05:59;;;;;;;;;;;;;;;8.17;100.00;101530.53;5002096;28;20369;-73
2022/10/07 04:08:27;;;;;;;;;;;;;;;8.15;100.00;101548.47;5028193;28;19914;-73
2022/10/07 04:10:53;;;;;;;;;;;;;;;8.12;100.00;101554.84;5015427;28;19917;-73
2022/10/07 04:13:18;;;;;;;;;;;;;;;8.03;100.00;101553.81;5010419;28;19913;-73
2022/10/07 04:15:43;;;;;;;;;;;;;;;8.03;100.00;101559.13;5017919;28;19924;-72
2022/10/07 04:18:09;;;;;;;;;;;;;;;7.94;100.00;101559.03;5011954;28;20007;-73
2022/10/07 04:20:36;;;;;;;;;;;;;;;7.90;100.00;101571.72;5021988;28;19983;-73
2022/10/07 04:23:01;;;;;;;;;;;;;;;7.84;100.00;101572.22;5031886;28;19959;-73
2022/10/07 04:25:33;;;;;;;;;;;;;;;7.84;100.00;101585.50;5014782;28;20362;-73
2022/10/07 04:28:03;;;;;;;;;;;;;;;7.90;100.00;101600.97;5019633;28;20247;-72
2022/10/07 04:30:33;;;;;;;;;;;;;;;7.89;100.00;101603.75;5024354;28;19920;-73
2022/10/07 04:33:02;;;;;;;;;;;;;;;7.91;100.00;101594.69;5032223;28;20437;-73
2022/10/07 04:35:28;;;;;;;;;;;;;;;7.88;100.00;101589.63;5024500;28;19913;-73
2022/10/07 04:37:55;;;;;;;;;;;;;;;7.97;100.00;101599.50;5032576;28;19913;-73
2022/10/07 04:40:23;;;;;;;;;;;;;;;7.99;100.00;101588.75;5013359;28;19921;-73
2022/10/07 04:45:34;;;;;;;;;;;;;;;8.00;100.00;101574.47;5023439;28;19917;-73
2022/10/07 04:48:00;;;;;;;;;;;;;;;7.99;100.00;101572.81;5008933;28;19920;-73
2022/10/07 04:50:27;;;;;;;;;;;;;;;7.95;100.00;101564.22;5023468;28;19944;-72
2022/10/07 04:52:56;;;;;;;;;;;;;;;7.89;100.00;101562.06;5008684;28;19920;-73
2022/10/07 04:55:22;;;;;;;;;;;;;;;7.89;100.00;101580.69;5030106;28;19917;-73
2022/10/07 04:57:48;;;;;;;;;;;;;;;7.87;100.00;101579.13;5018890;28;19917;-72
2022/10/07 05:00:14;;;;;;;;;;;;;;;7.87;100.00;101582.63;5017681;28;20402;-73
2022/10/07 05:02:39;;;;;;;;;;;;;;;7.88;100.00;101576.31;5018391;28;20008;-72
2022/10/07 05:05:05;;;;;;;;;;;;;;;7.83;100.00;101568.72;5030605;28;19913;-73
2022/10/07 05:07:31;;;;;;;;;;;;;;;7.83;100.00;101559.91;5024179;28;19913;-73
2022/10/07 05:09:58;;;;;;;;;;;;;;;7.78;100.00;101559.44;5031188;28;19912;-73
2022/10/07 05:12:25;;;;;;;;;;;;;;;7.87;100.00;101564.00;5013717;28;19975;-73
2022/10/07 05:14:51;;;;;;;;;;;;;;;7.89;100.00;101562.06;5032265;28;19970;-73
2022/10/07 05:17:17;;;;;;;;;;;;;;;7.85;100.00;101557.13;5012950;28;20409;-73
2022/10/07 05:19:43;;;;;;;;;;;;;;;7.83;100.00;101558.09;5025902;28;19913;-72
2022/10/07 05:22:09;;;;;;;;;;;;;;;7.83;100.00;101552.78;5029859;28;19920;-73
2022/10/07 05:24:34;;;;;;;;;;;;;;;7.81;100.00;101551.22;5015367;28;20382;-73
2022/10/07 05:27:00;;;;;;;;;;;;;;;7.86;100.00;101562.31;5030894;28;19970;-73
2022/10/07 05:29:26;;;;;;;;;;;;;;;7.95;100.00;101545.59;5013729;28;19924;-73
2022/10/07 05:31:52;;;;;;;;;;;;;;;7.95;100.00;101518.19;5019896;28;20301;-73
2022/10/07 05:34:21;;;;;;;;;;;;;;;8.01;100.00;101510.53;5011241;28;19913;-72
2022/10/07 05:36:46;;;;;;;;;;;;;;;8.03;100.00;101491.81;5016909;28;19924;-73
2022/10/07 05:39:12;;;;;;;;;;;;;;;8.03;100.00;101476.69;5022664;28;20082;-73
2022/10/07 05:41:46;;;;;;;;;;;;;;;8.01;100.00;101468.00;5056292;22;19921;-76
2022/10/07 05:44:15;;;;;;;;;;;;;;;7.95;100.00;101455.19;5038368;28;19916;-79
2022/10/07 05:46:41;;;;;;;;;;;;;;;8.05;100.00;101449.94;5047115;28;19909;-77
2022/10/07 05:49:06;;;;;;;;;;;;;;;8.03;100.00;101447.44;5031164;28;20016;-77
2022/10/07 05:51:33;;;;;;;;;;;;;;;8.00;100.00;101442.34;5026656;28;19913;-78
2022/10/07 05:53:59;;;;;;;;;;;;;;;8.04;100.00;101438.47;5012406;28;20012;-79
2022/10/07 05:56:35;;;;;;;;;;;;;;;8.13;100.00;101436.03;5028763;28;19945;-78
2022/10/07 05:59:01;;;;;;;;;;;;;;;8.16;100.00;101417.13;5028841;28;19995;-78
2022/10/07 06:01:28;;;;;;;;;;;;;;;8.13;100.00;101406.78;5012153;28;20004;-78
2022/10/07 06:03:58;;;;;;;;;;;;;;;8.18;100.00;101407.22;5028262;28;19917;-79
2022/10/07 06:06:28;;;;;;;;;;;;;;;8.10;100.00;101386.59;5011339;28;19921;-77
2022/10/07 06:13:06;;;;;;;;;;;;;;;8.16;100.00;101390.53;5027233;28;20534;-77
2022/10/07 06:14:25;;;;;;;;;;;;;;;8.15;100.00;101396.84;5007050;28;19920;-77
2022/10/07 06:16:50;;;;;;;;;;;;;;;8.15;100.00;101399.50;5023678;28;19929;-77
2022/10/07 06:19:21;;;;;;;;;;;;;;;8.14;100.00;101385.34;5023234;28;19914;-77
2022/10/07 06:21:47;;;;;;;;;;;;;;;8.16;100.00;101393.19;5006749;28;19928;-76
2022/10/07 06:24:12;;;;;;;;;;;;;;;8.22;100.00;101398.84;5023044;28;20008;-76
2022/10/07 06:26:38;;;;;;;;;;;;;;;8.27;100.00;101390.47;5008022;28;20365;-76
2022/10/07 06:29:03;;;;;;;;;;;;;;;8.28;100.00;101380.66;5023035;28;19918;-76
2022/10/07 06:31:28;;;;;;;;;;;;;;;8.28;100.00;101375.34;5006452;28;19920;-76
2022/10/07 06:33:58;;;;;;;;;;;;;;;8.34;100.00;101382.81;4994305;28;19909;-76
2022/10/07 06:36:24;;;;;;;;;;;;;;;8.42;100.00;101383.84;5006591;28;19917;-76
2022/10/07 06:38:54;;;;;;;;;;;;;;;8.63;100.00;101401.59;4993763;28;19917;-76
2022/10/07 06:41:25;;;;;;;;;;;;;;;8.91;100.00;101376.03;5021853;28;19940;-76
2022/10/07 06:44:02;;;;;;;;;;;;;;;9.06;100.00;101339.19;5023058;28;19949;-77
2022/10/07 06:46:28;;;;;;;;;;;;;;;9.19;100.00;101307.81;5006160;28;19941;-76
2022/10/07 06:48:54;;;;;;;;;;;;;;;9.32;100.00;101274.69;5006587;28;19913;-76
2022/10/07 06:51:20;;;;;;;;;;;;;;;9.34;100.00;101246.09;4989778;28;20473;-76
2022/10/07 06:53:50;;;;;;;;;;;;;;;9.36;100.00;101215.66;5002975;28;20692;-76
2022/10/07 06:56:16;;;;;;;;;;;;;;;9.56;100.00;101224.47;5022437;28;20010;-77
2022/10/07 06:58:42;;;;;;;;;;;;;;;9.78;100.00;101196.59;5022715;28;19922;-76
2022/10/07 07:01:08;;;;;;;;;;;;;;;10.00;100.00;101174.06;4998162;28;19913;-77
2022/10/07 07:03:34;;;;;;;;;;;;;;;9.84;100.00;101105.34;5006008;28;19914;-77
2022/10/07 07:06:01;;;;;;;;;;;;;;;9.83;100.00;101092.16;4989762;28;19913;-76
2022/10/07 07:08:31;;;;;;;;;;;;;;;10.20;100.00;101121.41;4989901;28;19913;-77
2022/10/07 07:11:02;;;;;;;;;;;;;;;10.28;100.00;101069.97;5020399;28;19921;-77
2022/10/07 07:13:27;;;;;;;;;;;;;;;10.30;100.00;101033.28;5006277;28;20394;-76
2022/10/07 07:15:57;;;;;;;;;;;;;;;10.00;100.00;100998.00;5005677;28;19999;-76
2022/10/07 07:18:23;;;;;;;;;;;;;;;10.36;100.00;101051.38;5005989;28;19920;-76
2022/10/07 07:20:48;;;;;;;;;;;;;;;10.53;100.00;101034.50;5015271;28;20313;-76
2022/10/07 07:23:14;;;;;;;;;;;;;;;10.56;100.00;101020.03;4983366;28;20543;-77
2022/10/07 07:25:44;;;;;;;;;;;;;;;10.77;100.00;101008.97;4988212;28;19924;-77
2022/10/07 07:28:10;;;;;;;;;;;;;;;11.45;100.00;101010.81;4983243;28;19972;-77
2022/10/07 07:30:37;;;;;;;;;;;;;;;11.29;100.00;100877.13;5001675;28;19951;-77
2022/10/07 07:33:03;;;;;;;;;;;;;;;11.07;100.00;100883.88;5013396;28;20363;-77
2022/10/07 07:35:31;;;;;;;;;;;;;;;11.34;100.00;100901.50;4991141;28;19914;-77
2022/10/07 07:37:56;;;;;;;;;;;;;;;11.29;100.00;100837.84;5010007;28;19964;-76
2022/10/07 07:40:22;;;;;;;;;;;;;;;11.05;100.00;100872.53;5017910;28;19913;-76
2022/10/07 07:42:47;;;;;;;;;;;;;;;11.84;100.00;100922.78;5015318;28;19917;-76
2022/10/07 07:45:13;;;;;;;;;;;;;;;11.46;100.00;100817.31;5013278;28;19913;-76
2022/10/07 07:47:38;;;;;;;;;;;;;;;11.53;100.00;100820.16;5015401;28;20046;-76
2022/10/07 07:50:05;;;;;;;;;;;;;;;12.21;100.00;100934.84;5001685;28;19917;-77
2022/10/07 07:52:32;;;;;;;;;;;;;;;11.90;100.00;100789.41;5004162;28;19917;-76
2022/10/07 07:55:01;;;;;;;;;;;;;;;12.11;100.00;100778.16;4998662;28;20052;-77
2022/10/07 07:57:27;;;;;;;;;;;;;;;11.96;100.00;100786.91;5006670;28;19974;-76
2022/10/07 07:59:55;;;;;;;;;;;;;;;11.93;100.00;100767.66;4988113;28;19916;-76
2022/10/07 08:02:22;;;;;;;;;;;;;;;12.20;100.00;100865.47;5018029;28;19913;-77
2022/10/07 08:04:48;;;;;;;;;;;;;;;12.65;100.00;100784.47;5019161;28;19939;-77
2022/10/07 08:07:14;;;;;;;;;;;;;;;13.34;100.00;100721.22;5003165;28;19913;-77
2022/10/07 08:09:42;;;;;;;;;;;;;;;13.33;100.00;100664.06;5002934;28;19913;-77
2022/10/07 08:12:08;;;;;;;;;;;;;;;13.27;100.00;100482.47;5002622;28;19971;-77
2022/10/07 08:14:34;;;;;;;;;;;;;;;13.41;100.00;100425.31;5006550;28;20012;-77
2022/10/07 08:16:59;;;;;;;;;;;;;;;13.66;100.00;100680.66;5007424;28;19971;-77
2022/10/07 08:19:26;;;;;;;;;;;;;;;13.76;100.00;100530.13;4996426;28;19995;-77
2022/10/07 08:21:52;;;;;;;;;;;;;;;13.46;100.00;100293.34;5018046;28;20425;-77
2022/10/07 08:24:24;;;;;;;;;;;;;;;13.84;100.00;100594.44;5018073;28;19928;-76
2022/10/07 08:26:50;;;;;;;;;;;;;;;13.73;100.00;100471.50;4985286;28;19935;-76
2022/10/07 08:29:16;;;;;;;;;;;;;;;13.65;100.00;100512.69;4986668;28;19918;-76
2022/10/07 08:31:42;;;;;;;;;;;;;;;14.48;100.00;100437.06;5018826;28;19940;-75
2022/10/07 08:34:08;;;;;;;;;;;;;;;13.71;100.00;100433.28;5006683;28;20370;-76
2022/10/07 08:36:34;;;;;;;;;;;;;;;14.15;100.00;100470.66;5003256;28;20362;-77
2022/10/07 08:39:00;;;;;;;;;;;;;;;14.31;100.00;100469.56;5002322;28;19917;-76
2022/10/07 08:41:35;;;;;;;;;;;;;;;14.66;100.00;100550.28;5002728;28;20394;-76
2022/10/07 08:44:12;;;;;;;;;;;;;;;14.54;100.00;100302.84;5007555;28;19913;-77
2022/10/07 08:46:39;;;;;;;;;;;;;;;14.56;100.00;100530.97;5017157;28;19917;-77
2022/10/07 08:49:11;;;;;;;;;;;;;;;14.37;100.00;100508.25;5003927;28;19913;-76
2022/10/07 08:51:45;;;;;;;;;;;;;;;14.00;100.00;100606.81;5006449;28;19917;-76
2022/10/07 08:54:12;;;;;;;;;;;;;;;15.37;100.00;100670.34;4989108;28;19913;-76
2022/10/07 08:56:39;;;;;;;;;;;;;;;14.39;100.00;100432.88;5007774;28;19921;-76
2022/10/07 08:59:13;;;;;;;;;;;;;;;14.46;100.00;100471.34;5008832;28;19913;-76
2022/10/07 09:01:47;;;;;;;;;;;;;;;15.87;100.00;100672.97;5007663;28;19914;-76
2022/10/07 09:04:28;;;;;;;;;;;;;;;14.84;100.00;100505.97;5022149;28;19920;-77
2022/10/07 09:07:23;;;;;;;;;;;;;;;14.81;100.00;100579.75;5003773;28;19996;-76
2022/10/07 09:09:58;;;;;;;;;;;;;;;14.36;100.00;100636.34;4990441;28;19913;-76
2022/10/07 09:12:33;;;;;;;;;;;;;;;14.40;100.00;100795.25;5008625;28;19921;-76
2022/10/07 09:15:01;;;;;;;;;;;;;;;15.65;100.00;100830.97;5006601;28;20370;-77
2022/10/07 09:17:28;;;;;;;;;;;;;;;15.52;100.00;100616.44;5007638;28;20277;-77
2022/10/07 09:20:15;;;;;;;;;;;;;;;15.54;100.00;100631.34;5007263;28;19913;-76
2022/10/07 09:22:42;;;;;;;;;;;;;;;15.69;100.00;100665.41;5023934;28;19917;-76
2022/10/07 09:25:07;;;;;;;;;;;;;;;15.12;100.00;100536.31;5023710;28;19917;-76
2022/10/07 09:27:33;;;;;;;;;;;;;;;15.15;100.00;100642.69;5007417;28;19920;-76
2022/10/07 09:29:58;;;;;;;;;;;;;;;15.95;100.00;100762.50;5008480;28;19917;-77
2022/10/07 09:32:23;;;;;;;;;;;;;;;16.35;99.64;100762.72;4989768;28;19936;-76
2022/10/07 09:34:48;;;;;;;;;;;;;;;15.15;99.24;100470.59;5017277;28;20034;-76
2022/10/07 09:37:18;;;;;;;;;;;;;;;14.90;100.00;100696.84;5001470;28;19917;-76
2022/10/07 09:39:44;;;;;;;;;;;;;;;15.41;100.00;100847.31;5017637;28;20004;-76
2022/10/07 09:42:28;;;;;;;;;;;;;;;16.38;100.00;100862.00;5015530;28;19914;-76
2022/10/07 09:44:56;;;;;;;;;;;;;;;16.03;98.34;100618.78;5003449;28;20016;-76
2022/10/07 09:47:23;;;;;;;;;;;;;;;15.83;99.98;100696.78;5002829;28;19914;-76
2022/10/07 09:49:50;;;;;;;;;;;;;;;16.15;98.32;100672.91;5005779;28;19959;-76
2022/10/07 09:52:17;;;;;;;;;;;;;;;15.73;98.66;100602.09;4999451;28;20271;-76
2022/10/07 09:54:43;;;;;;;;;;;;;;;15.51;100.00;100653.28;5005824;28;20362;-76
2022/10/07 09:57:23;;;;;;;;;;;;;;;16.62;100.00;100946.97;4999453;28;19924;-76
2022/10/07 09:59:48;;;;;;;;;;;;;;;17.68;93.29;100698.22;4999062;28;19913;-77
2022/10/07 10:02:14;;;;;;;;;;;;;;;16.95;90.69;100400.78;5001020;28;20008;-77
2022/10/07 10:04:51;;;;;;;;;;;;;;;16.68;92.32;100457.44;5006092;28;19929;-76
2022/10/07 10:07:18;;;;;;;;;;;;;;;16.96;90.81;100453.69;5016719;28;20394;-76
2022/10/07 10:09:54;;;;;;;;;;;;;;;17.41;89.02;100445.63;5006506;28;19913;-76
2022/10/07 10:12:22;;;;;;;;;;;;;;;17.60;88.28;100463.59;4984048;28;19948;-77
2022/10/07 10:14:57;;;;;;;;;;;;;;;17.40;87.06;100353.06;5017299;28;19917;-77
2022/10/07 10:17:30;;;;;;;;;;;;;;;16.30;90.61;100404.22;5002220;28;19921;-76
2022/10/07 10:20:15;;;;;;;;;;;;;;;16.77;93.18;100674.53;5001689;28;20424;-77
2022/10/07 10:22:40;;;;;;;;;;;;;;;17.14;91.60;100642.66;5019262;28;19917;-76
2022/10/07 10:28:06;;;;;;;;;;;;;;;17.09;91.29;100601.97;5015756;28;20248;-77
2022/10/07 10:30:33;;;;;;;;;;;;;;;16.97;90.31;100541.63;5001293;28;19917;-77
2022/10/07 10:33:15;;;;;;;;;;;;;;;16.19;91.83;100456.00;4999612;28;19909;-76
2022/10/07 10:35:46;;;;;;;;;;;;;;;17.07;90.87;100641.81;5000642;28;19940;-77
2022/10/07 10:38:12;;;;;;;;;;;;;;;17.37;90.79;100709.69;5014290;28;19960;-76
2022/10/07 10:40:37;;;;;;;;;;;;;;;17.82;88.04;100588.34;4988439;28;19917;-76
2022/10/07 10:43:15;;;;;;;;;;;;;;;17.56;84.65;100246.47;4982979;28;20011;-76
2022/10/07 10:45:54;;;;;;;;;;;;;;;17.33;86.25;100365.75;5015600;28;20004;-76
2022/10/07 10:48:38;;;;;;;;;;;;;;;17.93;88.25;100727.28;4998019;28;20021;-76
2022/10/07 10:51:13;;;;;;;;;;;;;;;17.61;87.26;100562.44;5000849;28;19914;-76
2022/10/07 10:53:45;;;;;;;;;;;;;;;17.45;88.64;100619.56;5001385;28;20032;-76
2022/10/07 10:56:30;;;;;;;;;;;;;;;17.57;87.58;100580.09;5001719;28;20375;-75
2022/10/07 10:59:20;;;;;;;;;;;;;;;16.86;88.80;100481.91;4998791;28;19921;-76
2022/10/07 11:01:51;;;;;;;;;;;;;;;17.04;87.12;100407.59;5018287;28;19964;-76
2022/10/07 11:04:35;;;;;;;;;;;;;;;17.10;89.65;100636.00;5016081;28;19917;-75
2022/10/07 11:07:03;;;;;;;;;;;;;;;16.92;90.95;100665.47;4997405;28;19924;-76
2022/10/07 11:09:44;;;;;;;;;;;;;;;17.50;90.52;100782.53;5015231;28;20355;-76
2022/10/07 11:12:30;;;;;;;;;;;;;;;16.88;91.27;100663.19;5000379;28;20037;-76
2022/10/07 11:15:03;;;;;;;;;;;;;;;17.79;89.83;100807.44;5011466;28;19922;-76
2022/10/07 11:17:30;;;;;;;;;;;;;;;17.50;86.43;100447.03;5003564;28;19921;-75
2022/10/07 11:20:11;;;;;;;;;;;;;;;17.66;87.26;100607.69;5016502;28;20400;-75
2022/10/07 11:22:39;;;;;;;;;;;;;;;17.72;86.33;100533.91;5013662;28;19925;-75
2022/10/07 11:25:15;;;;;;;;;;;;;;;17.61;86.31;100524.63;5000076;28;19936;-76
2022/10/07 11:27:44;;;;;;;;;;;;;;;17.33;85.93;100435.91;5000608;28;19917;-76
2022/10/07 11:30:20;;;;;;;;;;;;;;;17.60;87.00;100641.75;4997862;28;20179;-76
2022/10/07 11:33:06;;;;;;;;;;;;;;;18.51;83.91;100594.81;4989637;28;20381;-76
2022/10/07 11:35:32;;;;;;;;;;;;;;;17.84;84.78;100497.16;4997410;28;19921;-76
2022/10/07 11:38:09;;;;;;;;;;;;;;;17.34;84.29;100316.13;5012921;28;19921;-75
2022/10/07 11:40:40;;;;;;;;;;;;;;;17.66;86.74;100624.72;5012572;28;19913;-76
2022/10/07 11:43:13;;;;;;;;;;;;;;;17.73;82.92;100309.63;4995373;28;19999;-76
2022/10/07 11:45:48;;;;;;;;;;;;;;;17.66;85.80;100597.72;5002737;28;19913;-76
2022/10/07 11:48:18;;;;;;;;;;;;;;;17.19;86.28;100456.72;5012302;28;20279;-76
2022/10/07 11:50:57;;;;;;;;;;;;;;;17.12;88.30;100595.34;4999098;28;19909;-76
2022/10/07 11:53:24;;;;;;;;;;;;;;;16.78;89.54;100579.13;5013411;28;19913;-76
2022/10/07 11:55:59;;;;;;;;;;;;;;;16.39;92.17;100664.28;5001246;28;19917;-76
2022/10/07 11:58:26;;;;;;;;;;;;;;;16.23;93.31;100660.09;4998949;28;20390;-75
2022/10/07 12:01:12;;;;;;;;;;;;;;;16.07;97.09;100829.28;5000595;28;19909;-76
2022/10/07 12:03:37;;;;;;;;;;;;;;;16.00;98.35;100867.75;5015333;28;19913;-76
2022/10/07 12:06:06;;;;;;;;;;;;;;;15.97;98.56;100857.38;4997307;28;19996;-76
2022/10/07 12:08:32;;;;;;;;;;;;;;;16.43;98.25;100974.56;5015460;28;19924;-76
2022/10/07 12:11:10;;;;;;;;;;;;;;;16.28;95.92;100740.31;4998974;28;19949;-76
2022/10/07 12:13:37;;;;;;;;;;;;;;;16.40;97.05;100840.25;5014225;28;19917;-76
2022/10/07 12:16:21;;;;;;;;;;;;;;;16.64;96.70;100887.44;4999192;28;19913;-76
2022/10/07 12:19:06;;;;;;;;;;;;;;;17.30;95.55;100965.16;5017207;28;19924;-76
2022/10/07 12:21:50;;;;;;;;;;;;;;;17.13;94.88;100866.75;5015180;28;19924;-76
2022/10/07 12:24:15;;;;;;;;;;;;;;;17.55;90.66;100719.81;5003223;28;20433;-75
2022/10/07 12:26:43;;;;;;;;;;;;;;;17.35;92.12;100762.19;5000212;28;19917;-76
2022/10/07 12:29:28;;;;;;;;;;;;;;;18.13;87.72;100656.97;5012741;28;19992;-75
2022/10/07 12:31:54;;;;;;;;;;;;;;;17.78;88.80;100641.06;4997691;28;19913;-76
2022/10/07 12:34:40;;;;;;;;;;;;;;;17.99;89.90;100798.53;4998881;28;20023;-75
2022/10/07 12:37:24;;;;;;;;;;;;;;;17.95;87.28;100614.44;5013864;28;19921;-76
2022/10/07 12:39:50;;;;;;;;;;;;;;;17.69;88.64;100635.06;4998953;28;20008;-76
2022/10/07 12:42:15;;;;;;;;;;;;;;;17.82;86.23;100511.91;4999381;28;19945;-76
2022/10/07 12:44:46;;;;;;;;;;;;;;;18.31;85.85;100638.19;5002164;28;19917;-76
2022/10/07 12:47:20;;;;;;;;;;;;;;;18.30;84.79;100495.19;5016115;28;19918;-76
2022/10/07 12:49:50;;;;;;;;;;;;;;;17.72;87.32;100582.50;5003631;28;19917;-76
2022/10/07 12:52:15;;;;;;;;;;;;;;;17.77;87.31;100604.34;4983914;28;19926;-75
2022/10/07 12:54:49;;;;;;;;;;;;;;;17.86;86.07;100540.13;5003620;28;20272;-76